Time;durP1;ratioP1;P1;durP2;ratioP2;P2;SDS_P1;SDS_P2;PMS_P1;PMS_P2;Temp;Humidity;BMP_temperature;BMP_pressure;BME280_temperature;BME280_humidity;BME280_pressure;Samples;Min_cycle;Max_cycle;Signal;HPM_P1;HPM_P2
2022/12/07 00:00:16;;;;;;;;;;;;;;;18.66;44.86;101323.59;5129347;28;20308;-41
2022/12/07 00:02:41;;;;;;;;;;;;;;;18.65;45.25;101316.38;5126509;28;19974;-43
2022/12/07 00:05:07;;;;;;;;;;;;;;;18.65;45.03;101313.63;5127731;28;19923;-41
2022/12/07 00:07:32;;;;;;;;;;;;;;;18.66;45.24;101315.31;5109868;28;19924;-44
2022/12/07 00:09:58;;;;;;;;;;;;;;;18.65;45.22;101328.28;5130434;28;20279;-46
2022/12/07 00:12:24;;;;;;;;;;;;;;;18.65;45.13;101321.91;5130172;28;19928;-44
2022/12/07 00:14:49;;;;;;;;;;;;;;;18.65;45.19;101331.03;5127269;28;19927;-41
2022/12/07 00:17:15;;;;;;;;;;;;;;;18.65;45.05;101332.94;5128781;28;19923;-41
2022/12/07 00:19:40;;;;;;;;;;;;;;;18.66;44.99;101329.09;5127330;28;19923;-42
2022/12/07 00:22:06;;;;;;;;;;;;;;;18.65;45.17;101328.28;5129530;28;19931;-43
2022/12/07 00:24:32;;;;;;;;;;;;;;;18.65;45.10;101330.19;5109733;28;20443;-42
2022/12/07 00:26:57;;;;;;;;;;;;;;;18.66;44.94;101326.34;5128886;28;19923;-42
2022/12/07 00:29:23;;;;;;;;;;;;;;;18.65;45.00;101331.03;5128246;28;19942;-44
2022/12/07 00:31:49;;;;;;;;;;;;;;;18.66;44.94;101323.59;5128613;28;19956;-42
2022/12/07 00:34:15;;;;;;;;;;;;;;;18.65;44.90;101328.28;5127535;27;19930;-45
2022/12/07 00:36:41;;;;;;;;;;;;;;;18.65;45.03;101328.28;5109630;28;19966;-41
2022/12/07 00:39:07;;;;;;;;;;;;;;;18.65;45.07;101324.66;5129828;28;19923;-42
2022/12/07 00:41:32;;;;;;;;;;;;;;;18.65;45.06;101316.38;5129406;28;19923;-41
2022/12/07 00:43:58;;;;;;;;;;;;;;;18.64;45.08;101321.06;5126107;28;19930;-44
2022/12/07 00:46:24;;;;;;;;;;;;;;;18.63;45.16;101313.91;5126910;28;20317;-42
2022/12/07 00:48:50;;;;;;;;;;;;;;;18.65;45.15;101310.88;5128362;27;19932;-41
2022/12/07 00:51:16;;;;;;;;;;;;;;;18.64;45.00;101317.50;5127918;28;20023;-41
2022/12/07 00:53:42;;;;;;;;;;;;;;;18.64;45.06;101311.97;5109325;28;20015;-44
2022/12/07 00:56:10;;;;;;;;;;;;;;;18.65;44.93;101310.88;5128688;28;19923;-41
2022/12/07 00:58:36;;;;;;;;;;;;;;;18.65;45.06;101310.88;5109153;28;20426;-42
2022/12/07 01:01:02;;;;;;;;;;;;;;;18.64;44.99;101310.03;5128096;28;19927;-42
2022/12/07 01:03:28;;;;;;;;;;;;;;;18.63;44.89;101305.63;5108504;28;20017;-43
2022/12/07 01:05:54;;;;;;;;;;;;;;;18.63;45.10;101300.13;5126852;28;19996;-42
2022/12/07 01:08:20;;;;;;;;;;;;;;;18.64;45.01;101300.94;5109517;28;20092;-43
2022/12/07 01:10:46;;;;;;;;;;;;;;;18.64;44.95;101301.75;5110103;28;19923;-42
2022/12/07 01:13:11;;;;;;;;;;;;;;;18.63;45.13;101299.28;5109144;28;19923;-44
2022/12/07 01:15:40;;;;;;;;;;;;;;;18.64;44.90;101303.69;5107424;28;20008;-42
2022/12/07 01:18:06;;;;;;;;;;;;;;;18.64;44.97;101310.03;5109445;28;19971;-45
2022/12/07 01:20:32;;;;;;;;;;;;;;;18.64;45.11;101303.69;5128693;28;19931;-41
2022/12/07 01:22:57;;;;;;;;;;;;;;;18.63;45.02;101305.63;5128388;28;19942;-41
2022/12/07 01:25:23;;;;;;;;;;;;;;;18.63;45.06;101310.31;5127575;28;19927;-41
2022/12/07 01:27:48;;;;;;;;;;;;;;;18.64;45.01;101309.22;5128081;28;19923;-43
2022/12/07 01:30:14;;;;;;;;;;;;;;;18.62;44.93;101301.22;5129150;28;20539;-42
2022/12/07 01:32:39;;;;;;;;;;;;;;;18.64;45.08;101309.22;5128164;28;19931;-41
2022/12/07 01:35:05;;;;;;;;;;;;;;;18.63;44.81;101310.31;5126077;27;20349;-43
2022/12/07 01:37:34;;;;;;;;;;;;;;;18.63;44.92;101304.81;5127819;28;20405;-43
2022/12/07 01:39:59;;;;;;;;;;;;;;;18.62;44.88;101305.91;5109313;28;19987;-43
2022/12/07 01:42:25;;;;;;;;;;;;;;;18.63;44.87;101299.28;5127713;28;19931;-44
2022/12/07 01:45:11;;;;;;;;;;;;;;;18.62;44.87;101301.22;5125583;28;20430;-42
2022/12/07 01:47:36;;;;;;;;;;;;;;;18.63;44.89;101299.28;5111845;28;20351;-41
2022/12/07 01:50:02;;;;;;;;;;;;;;;18.62;44.82;101301.22;5127992;28;19923;-43
2022/12/07 01:52:29;;;;;;;;;;;;;;;18.63;44.84;101296.53;5128122;28;20014;-42
2022/12/07 01:54:57;;;;;;;;;;;;;;;18.61;45.02;101291.28;5126473;28;20451;-43
2022/12/07 01:57:22;;;;;;;;;;;;;;;18.62;44.82;101290.19;5128049;28;20018;-41
2022/12/07 01:59:48;;;;;;;;;;;;;;;18.62;45.03;101303.16;5126990;28;19923;-42
2022/12/07 02:02:34;;;;;;;;;;;;;;;18.62;45.08;101292.13;5127280;27;19980;-41
2022/12/07 02:05:00;;;;;;;;;;;;;;;18.61;44.80;101291.28;5110475;28;20382;-41
2022/12/07 02:07:25;;;;;;;;;;;;;;;18.62;44.74;101284.66;5127181;28;19938;-43
2022/12/07 02:09:51;;;;;;;;;;;;;;;18.62;44.83;101281.91;5126944;28;20095;-42
2022/12/07 02:12:16;;;;;;;;;;;;;;;18.63;44.85;101288.25;5128001;28;19932;-42
2022/12/07 02:14:42;;;;;;;;;;;;;;;18.63;44.73;101288.25;5125364;28;20551;-42
2022/12/07 02:17:25;;;;;;;;;;;;;;;18.61;44.95;101290.44;5127147;28;19923;-42
2022/12/07 02:20:09;;;;;;;;;;;;;;;18.62;44.85;101290.19;5108400;28;20369;-44
2022/12/07 02:22:54;;;;;;;;;;;;;;;18.61;45.00;101283.00;5127759;28;19928;-42
2022/12/07 02:25:31;;;;;;;;;;;;;;;18.61;44.89;101291.28;5111015;28;19972;-41
2022/12/07 02:28:06;;;;;;;;;;;;;;;18.62;44.84;101292.13;5125218;28;20395;-41
2022/12/07 02:30:32;;;;;;;;;;;;;;;18.62;44.94;101292.13;5126977;28;20022;-42
2022/12/07 02:32:59;;;;;;;;;;;;;;;18.61;44.82;101296.81;5125274;27;20377;-42
2022/12/07 02:35:40;;;;;;;;;;;;;;;18.61;44.79;101293.19;5126058;28;19935;-42
2022/12/07 02:38:13;;;;;;;;;;;;;;;18.61;45.06;101291.28;5126023;28;19950;-41
2022/12/07 02:40:43;;;;;;;;;;;;;;;18.60;44.82;101278.56;5127306;28;20057;-42
2022/12/07 02:43:11;;;;;;;;;;;;;;;18.61;44.84;101294.03;5107179;28;19955;-42
2022/12/07 02:45:37;;;;;;;;;;;;;;;18.60;44.95;101292.38;5122341;28;19959;-42
2022/12/07 02:48:03;;;;;;;;;;;;;;;18.60;44.79;101286.84;5126908;28;20015;-42
2022/12/07 02:50:28;;;;;;;;;;;;;;;18.61;44.70;101287.66;5126908;28;19923;-43
2022/12/07 02:52:54;;;;;;;;;;;;;;;18.60;45.02;101280.50;5126694;28;20391;-41
2022/12/07 02:55:21;;;;;;;;;;;;;;;18.61;45.01;101293.19;5107864;28;19923;-44
2022/12/07 02:57:52;;;;;;;;;;;;;;;18.60;44.81;101294.28;5126935;28;19971;-42
2022/12/07 03:00:18;;;;;;;;;;;;;;;18.60;44.74;101286.03;5124679;28;19924;-43
2022/12/07 03:02:50;;;;;;;;;;;;;;;18.59;44.95;101287.94;5126629;28;19992;-41
2022/12/07 03:05:22;;;;;;;;;;;;;;;18.60;44.79;101286.84;5106595;28;20294;-41
2022/12/07 03:08:08;;;;;;;;;;;;;;;18.61;44.72;101287.66;5126000;28;19924;-41
2022/12/07 03:10:40;;;;;;;;;;;;;;;18.60;44.65;101286.84;5110542;28;19932;-43
2022/12/07 03:13:10;;;;;;;;;;;;;;;18.60;44.77;101284.09;5108989;28;20389;-41
2022/12/07 03:15:39;;;;;;;;;;;;;;;18.60;44.69;101286.03;5128202;28;20022;-41
2022/12/07 03:18:05;;;;;;;;;;;;;;;18.59;44.93;101285.19;5130593;28;19931;-43
2022/12/07 03:20:31;;;;;;;;;;;;;;;18.59;44.79;101290.72;5112188;28;19927;-43
2022/12/07 03:22:56;;;;;;;;;;;;;;;18.60;44.86;101297.88;5110968;28;20022;-41
2022/12/07 03:25:22;;;;;;;;;;;;;;;18.59;44.78;101290.72;5129078;28;19928;-41
2022/12/07 03:28:03;;;;;;;;;;;;;;;18.60;44.72;101297.88;5109614;28;20279;-43
2022/12/07 03:30:29;;;;;;;;;;;;;;;18.58;44.72;101286.31;5111808;28;20153;-43
2022/12/07 03:32:58;;;;;;;;;;;;;;;18.59;44.92;101285.19;5128465;27;20363;-43
2022/12/07 03:35:27;;;;;;;;;;;;;;;18.60;44.94;101291.53;5128983;28;19954;-41
2022/12/07 03:37:56;;;;;;;;;;;;;;;18.59;44.58;101290.72;5128858;28;20043;-41
2022/12/07 03:40:25;;;;;;;;;;;;;;;18.60;44.66;101289.59;5129659;28;20010;-43
2022/12/07 03:42:50;;;;;;;;;;;;;;;18.60;44.63;101291.53;5109853;28;20018;-41
2022/12/07 03:45:17;;;;;;;;;;;;;;;18.59;44.86;101285.19;5127275;28;19934;-42
2022/12/07 03:47:46;;;;;;;;;;;;;;;18.59;44.69;101290.72;5110102;28;19923;-42
2022/12/07 03:50:14;;;;;;;;;;;;;;;18.59;44.82;101282.44;5111401;28;19963;-42
2022/12/07 03:52:44;;;;;;;;;;;;;;;18.58;44.62;101286.31;5110792;28;19931;-42
2022/12/07 03:55:14;;;;;;;;;;;;;;;18.57;44.67;101279.13;5129189;28;19965;-42
2022/12/07 03:57:40;;;;;;;;;;;;;;;18.58;44.76;101275.25;5110236;28;19966;-45
2022/12/07 04:00:06;;;;;;;;;;;;;;;18.59;44.78;101285.19;5129530;28;20435;-45
2022/12/07 04:02:31;;;;;;;;;;;;;;;18.59;44.71;101284.38;5128701;28;19981;-46
2022/12/07 04:04:57;;;;;;;;;;;;;;;18.59;44.92;101279.69;5128044;28;19934;-45
2022/12/07 04:07:23;;;;;;;;;;;;;;;18.60;44.68;101286.03;5129212;28;19931;-46
2022/12/07 04:09:48;;;;;;;;;;;;;;;18.59;44.64;101287.94;5129763;28;19923;-44
2022/12/07 04:12:14;;;;;;;;;;;;;;;18.59;44.77;101290.72;5129627;28;20189;-44
2022/12/07 04:14:39;;;;;;;;;;;;;;;18.56;44.75;101275.50;5126885;28;20289;-47
2022/12/07 04:17:05;;;;;;;;;;;;;;;18.58;44.66;101283.53;5128170;28;19924;-45
2022/12/07 04:19:31;;;;;;;;;;;;;;;18.59;44.88;101289.88;5129340;28;19930;-47
2022/12/07 04:21:58;;;;;;;;;;;;;;;18.57;44.84;101287.41;5110724;28;19932;-44
2022/12/07 04:24:23;;;;;;;;;;;;;;;18.58;44.88;101288.22;5128128;27;19935;-45
2022/12/07 04:26:49;;;;;;;;;;;;;;;18.56;44.70;101283.78;5128547;28;19924;-44
2022/12/07 04:29:14;;;;;;;;;;;;;;;18.58;44.69;101279.94;5128904;28;19927;-44
2022/12/07 04:31:40;;;;;;;;;;;;;;;18.58;44.69;101279.94;5128216;27;20299;-44
2022/12/07 04:34:06;;;;;;;;;;;;;;;18.57;44.93;101279.13;5128340;28;19939;-44
2022/12/07 04:36:31;;;;;;;;;;;;;;;18.56;44.76;101274.69;5110378;28;20023;-43
2022/12/07 04:38:57;;;;;;;;;;;;;;;18.57;44.63;101273.63;5128595;28;19931;-44
2022/12/07 04:41:26;;;;;;;;;;;;;;;18.56;44.69;101275.50;5110993;28;20010;-44
2022/12/07 04:43:55;;;;;;;;;;;;;;;18.56;44.77;101281.03;5125273;28;19939;-43
2022/12/07 04:46:22;;;;;;;;;;;;;;;18.58;44.68;101279.94;5127430;28;19924;-45
2022/12/07 04:48:47;;;;;;;;;;;;;;;18.56;44.77;101281.03;5127842;28;19928;-44
2022/12/07 04:51:14;;;;;;;;;;;;;;;18.56;44.72;101275.50;5128784;28;19930;-44
2022/12/07 04:53:39;;;;;;;;;;;;;;;18.56;44.73;101278.28;5127613;28;19931;-43
2022/12/07 04:56:05;;;;;;;;;;;;;;;18.56;45.03;101274.69;5128803;28;20967;-44
2022/12/07 04:58:31;;;;;;;;;;;;;;;18.56;44.61;101281.03;5127922;28;19983;-45
2022/12/07 05:00:56;;;;;;;;;;;;;;;18.58;44.42;101268.91;5127850;28;19931;-44
2022/12/07 05:03:22;;;;;;;;;;;;;;;18.56;44.62;101267.25;5128501;28;19934;-46
2022/12/07 05:05:47;;;;;;;;;;;;;;;18.55;44.71;101271.09;5127073;28;19927;-46
2022/12/07 05:08:13;;;;;;;;;;;;;;;18.56;44.87;101267.25;5128100;28;19931;-45
2022/12/07 05:10:38;;;;;;;;;;;;;;;18.55;44.87;101257.31;5128207;28;19931;-45
2022/12/07 05:13:04;;;;;;;;;;;;;;;18.57;44.94;101257.06;5127568;28;19957;-43
2022/12/07 05:15:30;;;;;;;;;;;;;;;18.56;44.85;101281.03;5126590;28;20266;-47
2022/12/07 05:17:55;;;;;;;;;;;;;;;18.56;44.64;101271.94;5127967;28;19938;-44
2022/12/07 05:20:21;;;;;;;;;;;;;;;18.56;44.80;101272.75;5129184;28;19930;-44
2022/12/07 05:22:47;;;;;;;;;;;;;;;18.56;44.71;101277.44;5127692;28;19931;-44
2022/12/07 05:25:12;;;;;;;;;;;;;;;18.55;44.77;101279.38;5127918;28;19923;-48
2022/12/07 05:27:38;;;;;;;;;;;;;;;18.56;44.86;101285.72;5127258;28;19923;-45
2022/12/07 05:30:04;;;;;;;;;;;;;;;18.55;44.68;101279.38;5128011;27;20336;-46
2022/12/07 05:32:30;;;;;;;;;;;;;;;18.56;44.52;101277.44;5127040;27;19930;-46
2022/12/07 05:34:56;;;;;;;;;;;;;;;18.55;44.64;101278.56;5126891;28;19923;-45
2022/12/07 05:37:21;;;;;;;;;;;;;;;18.55;44.65;101273.03;5127097;27;19931;-44
2022/12/07 05:39:47;;;;;;;;;;;;;;;18.55;44.67;101268.34;5108904;28;20390;-45
2022/12/07 05:42:12;;;;;;;;;;;;;;;18.63;44.62;101267.00;5127853;28;19968;-45
2022/12/07 05:44:38;;;;;;;;;;;;;;;18.66;46.07;101258.19;5125474;28;19923;-45
2022/12/07 05:47:04;;;;;;;;;;;;;;;18.64;46.60;101260.38;5127701;28;19976;-44
2022/12/07 05:49:30;;;;;;;;;;;;;;;18.68;46.13;101264.28;5109161;28;19923;-44
2022/12/07 05:51:55;;;;;;;;;;;;;;;18.66;46.05;101258.19;5108607;28;20294;-45
2022/12/07 05:54:21;;;;;;;;;;;;;;;18.66;45.83;101262.91;5127484;28;19923;-44
2022/12/07 05:56:46;;;;;;;;;;;;;;;18.64;45.92;101260.38;5124464;28;19930;-44
2022/12/07 05:59:27;;;;;;;;;;;;;;;18.64;45.65;101265.06;5127625;28;19931;-44
2022/12/07 06:02:01;;;;;;;;;;;;;;;18.64;45.79;101265.91;5124222;28;19959;-44
2022/12/07 06:04:28;;;;;;;;;;;;;;;18.64;45.68;101268.66;5106315;28;20000;-45
2022/12/07 06:06:53;;;;;;;;;;;;;;;18.64;45.59;101263.16;5108324;28;19974;-43
2022/12/07 06:09:20;;;;;;;;;;;;;;;18.66;45.69;101265.66;5125028;28;19932;-45
2022/12/07 06:14:31;;;;;;;;;;;;;;;18.68;45.79;101268.97;5107446;28;20019;-45
2022/12/07 06:16:56;;;;;;;;;;;;;;;18.66;45.69;101269.25;5124906;28;19923;-48
2022/12/07 06:19:22;;;;;;;;;;;;;;;18.66;45.55;101269.25;5120883;28;19923;-48
2022/12/07 06:21:47;;;;;;;;;;;;;;;18.66;45.56;101272.00;5121496;28;19923;-43
2022/12/07 06:24:13;;;;;;;;;;;;;;;18.67;45.63;101279.16;5119852;28;19924;-44
2022/12/07 06:26:39;;;;;;;;;;;;;;;18.67;45.63;101276.41;5122617;28;19930;-44
2022/12/07 06:29:04;;;;;;;;;;;;;;;18.69;45.61;101276.13;5105342;28;20370;-46
2022/12/07 06:31:30;;;;;;;;;;;;;;;18.68;45.31;101277.22;5123775;28;19962;-43
2022/12/07 06:33:58;;;;;;;;;;;;;;;18.69;45.43;101268.72;5103584;28;20374;-46
2022/12/07 06:36:23;;;;;;;;;;;;;;;18.70;45.80;101275.09;5119307;28;20452;-46
2022/12/07 06:38:52;;;;;;;;;;;;;;;18.73;45.45;101277.28;5117210;28;19961;-43
2022/12/07 06:41:18;;;;;;;;;;;;;;;18.73;45.71;101280.03;5105482;28;19924;-44
2022/12/07 06:43:44;;;;;;;;;;;;;;;18.71;45.79;101280.31;5122074;28;19923;-44
2022/12/07 06:46:09;;;;;;;;;;;;;;;18.72;45.53;101270.94;5121415;28;20256;-47
2022/12/07 06:48:35;;;;;;;;;;;;;;;18.72;45.46;101270.13;5124823;27;19936;-44
2022/12/07 06:51:00;;;;;;;;;;;;;;;18.73;45.50;101274.53;5129599;28;19934;-44
2022/12/07 06:53:26;;;;;;;;;;;;;;;18.74;45.62;101273.44;5119812;27;20223;-44
2022/12/07 06:55:52;;;;;;;;;;;;;;;18.73;45.66;101269.84;5125766;27;19924;-51
2022/12/07 06:58:17;;;;;;;;;;;;;;;18.74;45.51;101273.44;5123260;28;19932;-45
2022/12/07 07:00:43;;;;;;;;;;;;;;;18.74;45.65;101282.56;5107225;28;19932;-43
2022/12/07 07:03:09;;;;;;;;;;;;;;;18.74;45.29;101263.25;5086846;28;19988;-44
2022/12/07 07:05:34;;;;;;;;;;;;;;;18.74;45.44;101277.03;5118043;27;19936;-45
2022/12/07 07:08:00;;;;;;;;;;;;;;;18.75;45.52;101280.63;5114990;27;19935;-43
2022/12/07 07:10:46;;;;;;;;;;;;;;;18.74;45.65;101274.28;5099895;28;19931;-43
2022/12/07 07:13:11;;;;;;;;;;;;;;;18.75;45.56;101275.09;5120979;27;19932;-43
2022/12/07 07:15:37;;;;;;;;;;;;;;;18.75;45.56;101273.16;5119216;28;19928;-44
2022/12/07 07:18:03;;;;;;;;;;;;;;;18.76;45.35;101282.28;5119648;27;19931;-43
2022/12/07 07:20:33;;;;;;;;;;;;;;;18.76;45.50;101280.34;5115967;28;19927;-46
2022/12/07 07:22:58;;;;;;;;;;;;;;;18.76;45.52;101274.81;5117359;27;19930;-44
2022/12/07 07:25:24;;;;;;;;;;;;;;;18.77;45.55;101281.16;5113634;27;19927;-45
2022/12/07 07:27:49;;;;;;;;;;;;;;;18.77;45.50;101281.16;5122643;27;20329;-44
2022/12/07 07:30:15;;;;;;;;;;;;;;;18.78;45.31;101280.06;5121492;27;19965;-44
2022/12/07 07:32:41;;;;;;;;;;;;;;;18.78;45.25;101283.69;5117154;27;19923;-45
2022/12/07 07:35:06;;;;;;;;;;;;;;;18.78;45.41;101286.44;5115455;28;19936;-45
2022/12/07 07:37:32;;;;;;;;;;;;;;;18.78;45.31;101286.44;5120491;28;19930;-44
2022/12/07 07:39:57;;;;;;;;;;;;;;;18.80;45.16;101291.66;5114983;28;19980;-46
2022/12/07 07:42:23;;;;;;;;;;;;;;;18.80;45.37;101286.16;5112357;27;20374;-45
2022/12/07 07:44:49;;;;;;;;;;;;;;;18.79;45.29;101287.25;5112302;27;19923;-48
2022/12/07 07:47:14;;;;;;;;;;;;;;;18.83;45.38;101290.31;5114254;27;19938;-49
2022/12/07 07:49:40;;;;;;;;;;;;;;;18.91;45.65;101287.00;5119326;27;19924;-49
2022/12/07 07:52:13;;;;;;;;;;;;;;;18.96;46.05;101287.88;5111064;27;19927;-46
2022/12/07 07:58:07;;;;;;;;;;;;;;;18.92;46.49;101294.22;5108002;27;20064;-44
2022/12/07 08:00:32;;;;;;;;;;;;;;;18.89;46.65;101289.22;5105354;27;20338;-44
2022/12/07 08:02:59;;;;;;;;;;;;;;;18.89;46.69;101295.56;5109677;27;19949;-46
2022/12/07 08:05:24;;;;;;;;;;;;;;;18.89;46.47;101295.56;5106863;27;19931;-43
2022/12/07 08:07:50;;;;;;;;;;;;;;;18.88;46.72;101293.91;5102985;27;20000;-44
2022/12/07 08:10:15;;;;;;;;;;;;;;;18.88;46.41;101299.44;5100098;27;20278;-44
2022/12/07 08:15:27;;;;;;;;;;;;;;;18.87;46.55;101306.06;5094335;27;20169;-43
2022/12/07 08:17:53;;;;;;;;;;;;;;;18.87;46.25;101308.81;5091201;28;20048;-45
2022/12/07 08:20:19;;;;;;;;;;;;;;;18.87;45.95;101306.06;5119533;27;19928;-46
2022/12/07 08:22:44;;;;;;;;;;;;;;;18.89;46.27;101311.31;5113252;27;19989;-44
2022/12/07 08:25:10;;;;;;;;;;;;;;;18.90;46.51;101304.69;5110597;27;19934;-43
2022/12/07 08:27:35;;;;;;;;;;;;;;;18.89;46.10;101309.38;5115423;27;19927;-45
2022/12/07 08:30:01;;;;;;;;;;;;;;;18.89;46.25;101308.53;5117266;27;19931;-45
2022/12/07 08:32:27;;;;;;;;;;;;;;;18.88;46.43;101310.47;5110078;27;20394;-44
2022/12/07 08:34:53;;;;;;;;;;;;;;;18.88;46.22;101318.75;5109104;27;19931;-45
2022/12/07 08:37:18;;;;;;;;;;;;;;;18.88;46.22;101316.00;5116778;27;19946;-46
2022/12/07 08:39:44;;;;;;;;;;;;;;;18.89;46.34;101320.41;5117024;27;19930;-46
2022/12/07 08:42:09;;;;;;;;;;;;;;;18.89;46.39;101308.53;5113435;27;20419;-45
2022/12/07 08:44:35;;;;;;;;;;;;;;;18.90;46.10;101310.19;5109001;27;19927;-43
2022/12/07 08:47:02;;;;;;;;;;;;;;;18.89;45.88;101312.13;5105768;27;19935;-45
2022/12/07 08:49:28;;;;;;;;;;;;;;;18.89;46.06;101312.13;5112194;27;19928;-43
2022/12/07 08:51:54;;;;;;;;;;;;;;;18.89;46.33;101309.38;5109966;27;19989;-48
2022/12/07 08:54:20;;;;;;;;;;;;;;;18.90;46.13;101308.25;5111218;27;19931;-44
2022/12/07 08:56:46;;;;;;;;;;;;;;;18.90;46.08;101302.75;5108529;27;19923;-44
2022/12/07 08:59:12;;;;;;;;;;;;;;;18.91;45.89;101307.19;5113893;27;19931;-47
2022/12/07 09:01:38;;;;;;;;;;;;;;;18.91;46.14;101309.94;5117917;27;20471;-45
2022/12/07 09:04:03;;;;;;;;;;;;;;;18.90;45.90;101308.25;5108335;27;19932;-45
2022/12/07 09:06:29;;;;;;;;;;;;;;;18.91;45.80;101300.81;5105990;27;21787;-45
2022/12/07 09:08:56;;;;;;;;;;;;;;;18.91;45.81;101306.31;5109476;27;19932;-44
2022/12/07 09:11:21;;;;;;;;;;;;;;;18.93;45.54;101306.91;5106922;27;20018;-43
2022/12/07 09:13:53;;;;;;;;;;;;;;;18.93;45.89;101304.16;5112091;27;20044;-43
2022/12/07 09:16:19;;;;;;;;;;;;;;;18.93;45.85;101306.91;5108454;27;19931;-48
2022/12/07 09:18:45;;;;;;;;;;;;;;;18.93;45.70;101309.66;5109595;27;19988;-43
2022/12/07 09:21:10;;;;;;;;;;;;;;;18.93;45.95;101307.72;5114536;27;19939;-46
2022/12/07 09:23:36;;;;;;;;;;;;;;;18.92;45.55;101306.06;5093765;27;19980;-47
2022/12/07 09:26:02;;;;;;;;;;;;;;;18.93;45.77;101307.72;5122112;27;19930;-46
2022/12/07 09:28:35;;;;;;;;;;;;;;;18.92;45.99;101303.31;5096468;27;19962;-47
2022/12/07 09:31:02;;;;;;;;;;;;;;;18.94;45.80;101303.03;5110078;27;20661;-44
2022/12/07 09:33:52;;;;;;;;;;;;;;;18.94;45.62;101303.03;5098005;27;19923;-44
2022/12/07 09:36:17;;;;;;;;;;;;;;;18.94;45.89;101303.88;5115213;28;19937;-44
2022/12/07 09:38:43;;;;;;;;;;;;;;;18.93;45.78;101316.00;5109601;27;19931;-43
2022/12/07 09:41:09;;;;;;;;;;;;;;;18.93;45.92;101312.44;5104727;27;19939;-45
2022/12/07 09:43:35;;;;;;;;;;;;;;;18.91;45.79;101312.72;5110614;27;19928;-42
2022/12/07 09:46:00;;;;;;;;;;;;;;;18.91;45.69;101315.47;5106719;27;19938;-44
2022/12/07 09:48:29;;;;;;;;;;;;;;;18.93;45.83;101315.19;5092349;27;19931;-48
2022/12/07 09:50:55;;;;;;;;;;;;;;;18.92;45.71;101321.81;5095515;27;21400;-43
2022/12/07 09:53:24;;;;;;;;;;;;;;;18.92;45.87;101321.81;5109231;27;20372;-45
2022/12/07 09:55:49;;;;;;;;;;;;;;;18.95;46.12;101315.72;5107106;27;19966;-52
2022/12/07 09:58:23;;;;;;;;;;;;;;;18.94;45.80;101316.84;5111397;27;19942;-46
2022/12/07 10:00:50;;;;;;;;;;;;;;;18.95;45.80;101304.69;5110260;27;20027;-43
2022/12/07 10:03:15;;;;;;;;;;;;;;;18.92;45.80;101317.13;5098843;27;20026;-46
2022/12/07 10:05:43;;;;;;;;;;;;;;;18.92;45.93;101308.84;5110154;27;19928;-44
2022/12/07 10:08:11;;;;;;;;;;;;;;;18.91;45.69;101309.94;5107996;27;20504;-46
2022/12/07 10:10:38;;;;;;;;;;;;;;;18.91;45.98;101298.91;5107438;27;20075;-44
2022/12/07 10:13:11;;;;;;;;;;;;;;;18.93;45.96;101304.16;5115934;27;19980;-44
2022/12/07 10:15:57;;;;;;;;;;;;;;;18.92;45.73;101300.56;5109058;27;19966;-46
2022/12/07 10:18:36;;;;;;;;;;;;;;;18.92;45.64;101295.03;5094833;27;20015;-44
2022/12/07 10:23:41;;;;;;;;;;;;;;;18.92;45.95;101283.16;5148834;27;20298;-46
2022/12/07 10:26:27;;;;;;;;;;;;;;;18.99;45.17;101286.50;5147806;27;20451;-41
2022/12/07 10:28:53;;;;;;;;;;;;;;;18.99;45.77;101279.03;5126777;27;20417;-41
2022/12/07 10:31:19;;;;;;;;;;;;;;;18.98;45.42;101279.31;5144534;27;19931;-40
2022/12/07 10:33:50;;;;;;;;;;;;;;;18.96;45.58;101278.78;5150619;27;19932;-40
2022/12/07 10:36:17;;;;;;;;;;;;;;;19.38;41.95;101272.22;5126636;27;20065;-54
2022/12/07 10:38:45;;;;;;;;;;;;;;;19.08;43.87;101282.09;5141577;27;20436;-40
2022/12/07 10:41:10;;;;;;;;;;;;;;;19.05;44.93;101277.16;5121082;27;20038;-43
2022/12/07 10:43:36;;;;;;;;;;;;;;;19.04;44.26;101268.03;5140167;27;19939;-42
2022/12/07 10:46:22;;;;;;;;;;;;;;;19.02;44.02;101277.69;5142697;27;20371;-42
2022/12/07 10:48:52;;;;;;;;;;;;;;;19.02;43.99;101272.97;5145111;27;19931;-42
2022/12/07 10:51:27;;;;;;;;;;;;;;;19.00;43.83;101258.63;5148363;27;19927;-41
2022/12/07 10:54:14;;;;;;;;;;;;;;;19.00;43.52;101266.09;5127286;27;20040;-45
2022/12/07 10:56:51;;;;;;;;;;;;;;;18.99;43.10;101262.47;5132039;27;20014;-40
2022/12/07 10:59:22;;;;;;;;;;;;;;;18.97;43.47;101259.16;5146414;27;19942;-43
2022/12/07 11:02:08;;;;;;;;;;;;;;;19.00;43.99;101253.13;5150892;27;19970;-42
2022/12/07 11:04:36;;;;;;;;;;;;;;;19.00;43.06;101253.13;5112178;27;20010;-39
2022/12/07 11:07:06;;;;;;;;;;;;;;;19.01;44.63;101248.44;5106543;27;20048;-41
2022/12/07 11:09:51;;;;;;;;;;;;;;;19.03;44.82;101254.50;5127003;27;20428;-40
2022/12/07 11:12:41;;;;;;;;;;;;;;;19.01;45.10;101245.66;5118494;27;20050;-41
2022/12/07 11:17:48;;;;;;;;;;;;;;;19.01;44.96;101240.97;5153210;27;19926;-42
2022/12/07 11:22:57;;;;;;;;;;;;;;;19.03;44.83;101237.94;5163250;27;19937;-42
2022/12/07 11:25:25;;;;;;;;;;;;;;;19.02;44.89;101239.84;5153055;27;20390;-41
2022/12/07 11:28:31;;;;;;;;;;;;;;;19.02;44.87;101228.00;5137503;27;19990;-45
2022/12/07 11:31:13;;;;;;;;;;;;;;;19.01;45.08;101227.16;5132845;27;20466;-41
2022/12/07 11:33:46;;;;;;;;;;;;;;;19.01;44.93;101221.66;5124705;27;20026;-42
2022/12/07 11:36:31;;;;;;;;;;;;;;;19.02;44.95;101216.94;5146742;27;20377;-41
2022/12/07 11:38:57;;;;;;;;;;;;;;;19.02;45.04;101216.94;5151538;27;19927;-44
2022/12/07 11:41:31;;;;;;;;;;;;;;;19.04;44.94;101214.72;5147587;27;20009;-42
2022/12/07 11:43:59;;;;;;;;;;;;;;;19.04;44.10;101214.72;5121955;27;20187;-43
2022/12/07 11:46:26;;;;;;;;;;;;;;;19.05;44.26;101211.72;5138067;27;19973;-41
2022/12/07 11:49:11;;;;;;;;;;;;;;;19.07;44.45;101213.38;5142714;27;20284;-45
2022/12/07 11:51:37;;;;;;;;;;;;;;;19.08;44.54;101206.75;5127804;27;20017;-42
2022/12/07 11:54:05;;;;;;;;;;;;;;;19.07;44.98;101207.84;5148179;27;20383;-41
2022/12/07 11:56:30;;;;;;;;;;;;;;;19.07;44.81;101202.31;5131395;27;20021;-46
2022/12/07 11:58:58;;;;;;;;;;;;;;;19.09;44.65;101197.38;5150699;27;19942;-41
2022/12/07 12:01:34;;;;;;;;;;;;;;;19.07;44.85;101200.41;5152785;27;20026;-42
2022/12/07 12:04:19;;;;;;;;;;;;;;;19.08;44.63;101198.47;5153361;27;20019;-41
2022/12/07 12:06:45;;;;;;;;;;;;;;;19.07;44.72;101197.63;5132594;27;19942;-42
2022/12/07 12:09:12;;;;;;;;;;;;;;;19.06;44.69;101195.97;5134200;27;19931;-44
2022/12/07 12:12:08;;;;;;;;;;;;;;;19.07;44.31;101185.75;5137997;27;19954;-41
2022/12/07 12:15:00;;;;;;;;;;;;;;;19.07;44.68;101189.34;5134023;27;19931;-40
2022/12/07 12:17:45;;;;;;;;;;;;;;;19.08;44.50;101195.69;5148143;27;20253;-41
2022/12/07 12:20:28;;;;;;;;;;;;;;;19.05;45.03;101189.63;5139816;27;20371;-42
2022/12/07 12:22:55;;;;;;;;;;;;;;;19.07;45.08;101194.03;5151001;27;20014;-42
2022/12/07 12:25:21;;;;;;;;;;;;;;;19.07;44.52;101174.72;5156663;27;20030;-43
2022/12/07 12:27:47;;;;;;;;;;;;;;;19.08;44.66;101188.25;5152957;27;20021;-40
2022/12/07 12:30:33;;;;;;;;;;;;;;;19.07;43.79;101174.72;5145938;27;20015;-41
2022/12/07 12:33:03;;;;;;;;;;;;;;;19.07;44.41;101167.28;5125580;27;20011;-40
2022/12/07 12:35:31;;;;;;;;;;;;;;;19.05;45.08;101172.25;5131137;27;20073;-41
2022/12/07 12:38:16;;;;;;;;;;;;;;;19.05;44.93;101161.22;5122052;27;19973;-43
2022/12/07 12:40:42;;;;;;;;;;;;;;;19.04;44.82;101165.91;5125306;27;19962;-41
2022/12/07 12:43:35;;;;;;;;;;;;;;;19.04;45.12;101162.28;5139504;27;19968;-40
2022/12/07 12:46:20;;;;;;;;;;;;;;;19.02;45.10;101157.06;5117486;27;20430;-42
2022/12/07 12:48:46;;;;;;;;;;;;;;;19.03;45.05;101157.88;5126042;27;20029;-44
2022/12/07 12:51:31;;;;;;;;;;;;;;;19.02;45.11;101150.72;5138588;27;19935;-43
2022/12/07 12:54:04;;;;;;;;;;;;;;;19.02;44.95;101157.06;5113127;27;20013;-43
2022/12/07 12:56:35;;;;;;;;;;;;;;;19.01;45.11;101155.41;5133773;27;21515;-44
2022/12/07 12:59:21;;;;;;;;;;;;;;;19.01;45.04;101152.66;5134565;27;19966;-46